sensor_id;sensor_type;location;lat;lon;timestamp;temperature;humidity
32640;DHT22;19049;52.524;11.468;2023-07-16T00:04:33;21.30;99.90
32640;DHT22;19049;52.524;11.468;2023-07-16T00:07:00;21.10;99.90
32640;DHT22;19049;52.524;11.468;2023-07-16T00:09:26;22.10;99.90
32640;DHT22;19049;52.524;11.468;2023-07-16T00:16:44;20.70;99.90
32640;DHT22;19049;52.524;11.468;2023-07-16T00:19:10;22.20;99.90
32640;DHT22;19049;52.524;11.468;2023-07-16T00:21:37;22.20;99.90
32640;DHT22;19049;52.524;11.468;2023-07-16T00:24:03;21.80;99.90
32640;DHT22;19049;52.524;11.468;2023-07-16T00:26:29;21.50;99.90
32640;DHT22;19049;52.524;11.468;2023-07-16T00:28:54;21.30;99.90
32640;DHT22;19049;52.524;11.468;2023-07-16T00:31:20;21.60;99.90
32640;DHT22;19049;52.524;11.468;2023-07-16T00:33:46;21.60;99.90
32640;DHT22;19049;52.524;11.468;2023-07-16T00:36:11;21.60;99.90
32640;DHT22;19049;52.524;11.468;2023-07-16T00:38:37;21.60;99.90
32640;DHT22;19049;52.524;11.468;2023-07-16T00:41:03;21.50;99.90
32640;DHT22;19049;52.524;11.468;2023-07-16T00:43:28;21.50;99.90
32640;DHT22;19049;52.524;11.468;2023-07-16T00:45:54;21.50;99.90
32640;DHT22;19049;52.524;11.468;2023-07-16T00:48:20;21.50;99.90
32640;DHT22;19049;52.524;11.468;2023-07-16T00:50:46;21.50;99.90
32640;DHT22;19049;52.524;11.468;2023-07-16T00:53:12;21.50;99.90
32640;DHT22;19049;52.524;11.468;2023-07-16T00:55:38;21.70;99.90
32640;DHT22;19049;52.524;11.468;2023-07-16T00:58:07;21.20;99.90
32640;DHT22;19049;52.524;11.468;2023-07-16T01:00:37;21.70;99.90
32640;DHT22;19049;52.524;11.468;2023-07-16T01:03:09;21.90;99.90
32640;DHT22;19049;52.524;11.468;2023-07-16T01:08:35;21.30;99.90
32640;DHT22;19049;52.524;11.468;2023-07-16T01:11:04;21.30;99.90
32640;DHT22;19049;52.524;11.468;2023-07-16T01:13:30;21.30;99.90
32640;DHT22;19049;52.524;11.468;2023-07-16T01:15:57;21.60;99.90
32640;DHT22;19049;52.524;11.468;2023-07-16T01:20:49;20.60;99.90
32640;DHT22;19049;52.524;11.468;2023-07-16T01:25:48;21.20;99.90
32640;DHT22;19049;52.524;11.468;2023-07-16T01:31:16;21.80;99.90
32640;DHT22;19049;52.524;11.468;2023-07-16T01:33:43;21.10;99.90
32640;DHT22;19049;52.524;11.468;2023-07-16T01:38:36;21.50;99.90
32640;DHT22;19049;52.524;11.468;2023-07-16T01:41:02;21.00;99.90
32640;DHT22;19049;52.524;11.468;2023-07-16T01:45:54;20.80;99.90
32640;DHT22;19049;52.524;11.468;2023-07-16T01:58:12;21.00;99.90
32640;DHT22;19049;52.524;11.468;2023-07-16T02:00:38;20.70;99.90
32640;DHT22;19049;52.524;11.468;2023-07-16T02:03:04;20.70;99.90
32640;DHT22;19049;52.524;11.468;2023-07-16T02:05:29;21.40;99.90
32640;DHT22;19049;52.524;11.468;2023-07-16T02:10:21;21.10;99.90
32640;DHT22;19049;52.524;11.468;2023-07-16T02:12:46;21.70;99.90
32640;DHT22;19049;52.524;11.468;2023-07-16T02:15:12;20.70;99.90
32640;DHT22;19049;52.524;11.468;2023-07-16T02:20:05;20.80;99.90
32640;DHT22;19049;52.524;11.468;2023-07-16T02:22:35;20.60;99.90
32640;DHT22;19049;52.524;11.468;2023-07-16T02:25:01;21.00;99.90
32640;DHT22;19049;52.524;11.468;2023-07-16T02:27:27;20.50;99.90
32640;DHT22;19049;52.524;11.468;2023-07-16T02:29:52;21.30;99.90
32640;DHT22;19049;52.524;11.468;2023-07-16T02:32:18;21.70;99.90
32640;DHT22;19049;52.524;11.468;2023-07-16T02:34:44;21.20;99.90
32640;DHT22;19049;52.524;11.468;2023-07-16T02:37:10;21.80;99.90
32640;DHT22;19049;52.524;11.468;2023-07-16T02:39:35;20.70;99.90
32640;DHT22;19049;52.524;11.468;2023-07-16T02:42:01;20.60;99.90
32640;DHT22;19049;52.524;11.468;2023-07-16T02:49:19;21.20;99.90
32640;DHT22;19049;52.524;11.468;2023-07-16T02:51:45;21.50;99.90
32640;DHT22;19049;52.524;11.468;2023-07-16T02:54:10;21.80;99.90
32640;DHT22;19049;52.524;11.468;2023-07-16T03:04:50;21.30;99.90
32640;DHT22;19049;52.524;11.468;2023-07-16T03:13:04;21.90;99.90
32640;DHT22;19049;52.524;11.468;2023-07-16T03:18:34;22.10;99.90
32640;DHT22;19049;52.524;11.468;2023-07-16T03:24:34;22.00;99.90
32640;DHT22;19049;52.524;11.468;2023-07-16T03:27:00;20.80;99.90
32640;DHT22;19049;52.524;11.468;2023-07-16T03:34:17;21.70;99.90
32640;DHT22;19049;52.524;11.468;2023-07-16T03:36:43;21.00;99.90
32640;DHT22;19049;52.524;11.468;2023-07-16T03:44:00;22.00;99.90
32640;DHT22;19049;52.524;11.468;2023-07-16T03:46:26;21.90;99.90
32640;DHT22;19049;52.524;11.468;2023-07-16T03:48:53;21.90;99.90
32640;DHT22;19049;52.524;11.468;2023-07-16T03:51:19;21.90;99.90
32640;DHT22;19049;52.524;11.468;2023-07-16T03:53:44;21.80;99.90
32640;DHT22;19049;52.524;11.468;2023-07-16T03:56:10;20.80;99.90
32640;DHT22;19049;52.524;11.468;2023-07-16T03:58:35;21.70;99.90
32640;DHT22;19049;52.524;11.468;2023-07-16T04:03:27;21.10;99.90
32640;DHT22;19049;52.524;11.468;2023-07-16T04:06:04;21.90;99.90
32640;DHT22;19049;52.524;11.468;2023-07-16T04:08:30;21.00;99.90
32640;DHT22;19049;52.524;11.468;2023-07-16T04:13:22;20.40;99.90
32640;DHT22;19049;52.524;11.468;2023-07-16T04:18:13;22.00;99.90
32640;DHT22;19049;52.524;11.468;2023-07-16T04:23:05;20.80;99.90
32640;DHT22;19049;52.524;11.468;2023-07-16T04:27:57;21.90;99.90
32640;DHT22;19049;52.524;11.468;2023-07-16T04:30:23;20.70;99.90
32640;DHT22;19049;52.524;11.468;2023-07-16T04:32:48;21.30;99.90
32640;DHT22;19049;52.524;11.468;2023-07-16T04:37:40;21.20;99.90
32640;DHT22;19049;52.524;11.468;2023-07-16T04:40:06;21.80;99.90
32640;DHT22;19049;52.524;11.468;2023-07-16T04:44:58;21.50;99.90
32640;DHT22;19049;52.524;11.468;2023-07-16T04:49:50;22.10;99.90
32640;DHT22;19049;52.524;11.468;2023-07-16T04:52:15;20.80;99.90
32640;DHT22;19049;52.524;11.468;2023-07-16T04:54:41;21.10;99.90
32640;DHT22;19049;52.524;11.468;2023-07-16T04:57:07;21.80;99.90
32640;DHT22;19049;52.524;11.468;2023-07-16T04:59:33;20.70;99.90
32640;DHT22;19049;52.524;11.468;2023-07-16T05:01:59;21.70;99.90
32640;DHT22;19049;52.524;11.468;2023-07-16T05:04:25;21.60;99.90
32640;DHT22;19049;52.524;11.468;2023-07-16T05:06:51;21.20;99.90
32640;DHT22;19049;52.524;11.468;2023-07-16T05:09:17;21.90;99.90
32640;DHT22;19049;52.524;11.468;2023-07-16T05:11:43;21.40;99.90
32640;DHT22;19049;52.524;11.468;2023-07-16T05:14:08;21.40;99.90
32640;DHT22;19049;52.524;11.468;2023-07-16T05:16:34;21.50;99.90
32640;DHT22;19049;52.524;11.468;2023-07-16T05:19:00;21.40;99.90
32640;DHT22;19049;52.524;11.468;2023-07-16T05:23:51;20.90;99.90
32640;DHT22;19049;52.524;11.468;2023-07-16T05:28:43;21.60;99.90
32640;DHT22;19049;52.524;11.468;2023-07-16T05:31:09;21.60;99.90
32640;DHT22;19049;52.524;11.468;2023-07-16T05:33:34;21.70;99.90
32640;DHT22;19049;52.524;11.468;2023-07-16T05:36:00;21.70;99.90
32640;DHT22;19049;52.524;11.468;2023-07-16T05:38:25;21.70;99.90
32640;DHT22;19049;52.524;11.468;2023-07-16T05:40:51;21.80;99.90
32640;DHT22;19049;52.524;11.468;2023-07-16T05:43:17;21.80;99.90
32640;DHT22;19049;52.524;11.468;2023-07-16T05:45:42;21.80;99.90
32640;DHT22;19049;52.524;11.468;2023-07-16T05:48:08;21.80;99.90
32640;DHT22;19049;52.524;11.468;2023-07-16T05:50:34;21.80;99.90
32640;DHT22;19049;52.524;11.468;2023-07-16T05:52:59;22.30;99.90
32640;DHT22;19049;52.524;11.468;2023-07-16T05:55:25;21.60;99.90
32640;DHT22;19049;52.524;11.468;2023-07-16T05:57:51;22.50;99.90
32640;DHT22;19049;52.524;11.468;2023-07-16T06:00:16;22.00;99.90
32640;DHT22;19049;52.524;11.468;2023-07-16T06:02:43;22.10;99.90
32640;DHT22;19049;52.524;11.468;2023-07-16T06:05:09;22.10;99.90
32640;DHT22;19049;52.524;11.468;2023-07-16T06:07:34;22.20;99.90
32640;DHT22;19049;52.524;11.468;2023-07-16T06:10:00;22.30;99.90
32640;DHT22;19049;52.524;11.468;2023-07-16T06:12:26;22.20;99.90
32640;DHT22;19049;52.524;11.468;2023-07-16T06:14:53;22.60;99.90
32640;DHT22;19049;52.524;11.468;2023-07-16T06:17:18;22.80;99.90
32640;DHT22;19049;52.524;11.468;2023-07-16T06:22:10;23.80;99.90
32640;DHT22;19049;52.524;11.468;2023-07-16T06:27:02;24.30;99.90
32640;DHT22;19049;52.524;11.468;2023-07-16T06:29:27;23.80;99.90
32640;DHT22;19049;52.524;11.468;2023-07-16T06:31:57;24.10;99.90
32640;DHT22;19049;52.524;11.468;2023-07-16T06:34:24;24.80;99.90
32640;DHT22;19049;52.524;11.468;2023-07-16T06:36:49;24.30;99.90
32640;DHT22;19049;52.524;11.468;2023-07-16T06:44:07;25.30;99.90
32640;DHT22;19049;52.524;11.468;2023-07-16T06:46:33;24.90;99.90
32640;DHT22;19049;52.524;11.468;2023-07-16T06:48:59;25.00;99.90
32640;DHT22;19049;52.524;11.468;2023-07-16T06:51:24;25.00;99.90
32640;DHT22;19049;52.524;11.468;2023-07-16T06:53:50;25.10;99.90
32640;DHT22;19049;52.524;11.468;2023-07-16T06:56:16;25.20;99.90
32640;DHT22;19049;52.524;11.468;2023-07-16T06:58:41;25.30;99.90
32640;DHT22;19049;52.524;11.468;2023-07-16T07:01:07;25.40;99.90
32640;DHT22;19049;52.524;11.468;2023-07-16T07:03:33;25.40;99.90
32640;DHT22;19049;52.524;11.468;2023-07-16T07:06:02;25.50;99.90
32640;DHT22;19049;52.524;11.468;2023-07-16T07:08:29;26.20;99.90
32640;DHT22;19049;52.524;11.468;2023-07-16T07:18:13;26.10;99.90
32640;DHT22;19049;52.524;11.468;2023-07-16T07:20:40;26.00;99.90
32640;DHT22;19049;52.524;11.468;2023-07-16T07:23:05;26.60;99.90
32640;DHT22;19049;52.524;11.468;2023-07-16T07:25:31;26.70;99.90
32640;DHT22;19049;52.524;11.468;2023-07-16T07:27:57;26.10;99.90
32640;DHT22;19049;52.524;11.468;2023-07-16T07:30:23;26.30;99.90
32640;DHT22;19049;52.524;11.468;2023-07-16T07:32:48;26.10;99.20
32640;DHT22;19049;52.524;11.468;2023-07-16T07:37:40;26.30;99.90
32640;DHT22;19049;52.524;11.468;2023-07-16T07:40:08;26.30;99.90
32640;DHT22;19049;52.524;11.468;2023-07-16T07:44:59;26.20;99.90
32640;DHT22;19049;52.524;11.468;2023-07-16T07:47:25;26.80;99.90
32640;DHT22;19049;52.524;11.468;2023-07-16T07:49:52;26.60;99.90
32640;DHT22;19049;52.524;11.468;2023-07-16T07:52:18;26.60;97.30
32640;DHT22;19049;52.524;11.468;2023-07-16T07:54:44;26.70;97.80
32640;DHT22;19049;52.524;11.468;2023-07-16T07:57:09;26.70;98.90
32640;DHT22;19049;52.524;11.468;2023-07-16T07:59:35;26.50;99.90
32640;DHT22;19049;52.524;11.468;2023-07-16T08:02:01;26.70;97.80
32640;DHT22;19049;52.524;11.468;2023-07-16T08:04:29;26.80;97.40
32640;DHT22;19049;52.524;11.468;2023-07-16T08:06:57;26.90;98.00
32640;DHT22;19049;52.524;11.468;2023-07-16T08:09:25;26.90;97.10
32640;DHT22;19049;52.524;11.468;2023-07-16T08:11:51;26.90;95.70
32640;DHT22;19049;52.524;11.468;2023-07-16T08:14:17;27.10;97.90
32640;DHT22;19049;52.524;11.468;2023-07-16T08:16:42;27.10;96.70
32640;DHT22;19049;52.524;11.468;2023-07-16T08:19:09;27.20;95.90
32640;DHT22;19049;52.524;11.468;2023-07-16T08:21:35;27.20;93.40
32640;DHT22;19049;52.524;11.468;2023-07-16T08:24:04;27.30;95.80
32640;DHT22;19049;52.524;11.468;2023-07-16T08:26:30;27.50;99.70
32640;DHT22;19049;52.524;11.468;2023-07-16T08:31:22;27.50;99.40
32640;DHT22;19049;52.524;11.468;2023-07-16T08:36:13;28.50;99.90
32640;DHT22;19049;52.524;11.468;2023-07-16T08:41:05;27.40;97.30
32640;DHT22;19049;52.524;11.468;2023-07-16T08:43:33;28.20;94.40
32640;DHT22;19049;52.524;11.468;2023-07-16T08:46:01;28.30;95.50
32640;DHT22;19049;52.524;11.468;2023-07-16T08:48:28;28.40;94.00
32640;DHT22;19049;52.524;11.468;2023-07-16T08:50:55;29.00;97.40
32640;DHT22;19049;52.524;11.468;2023-07-16T08:53:22;28.60;96.90
32640;DHT22;19049;52.524;11.468;2023-07-16T08:58:14;28.50;99.80
32640;DHT22;19049;52.524;11.468;2023-07-16T09:00:48;27.90;94.90
32640;DHT22;19049;52.524;11.468;2023-07-16T09:03:14;27.90;95.30
32640;DHT22;19049;52.524;11.468;2023-07-16T09:08:08;27.60;94.90
32640;DHT22;19049;52.524;11.468;2023-07-16T09:10:34;27.60;95.20
32640;DHT22;19049;52.524;11.468;2023-07-16T09:15:27;28.20;90.90
32640;DHT22;19049;52.524;11.468;2023-07-16T09:17:54;28.10;96.90
32640;DHT22;19049;52.524;11.468;2023-07-16T09:22:47;27.80;88.90
32640;DHT22;19049;52.524;11.468;2023-07-16T09:30:06;27.10;93.20
32640;DHT22;19049;52.524;11.468;2023-07-16T09:32:36;27.10;93.50
32640;DHT22;19049;52.524;11.468;2023-07-16T09:35:11;26.40;99.90
32640;DHT22;19049;52.524;11.468;2023-07-16T09:37:38;27.10;94.30
32640;DHT22;19049;52.524;11.468;2023-07-16T09:40:08;26.60;99.80
32640;DHT22;19049;52.524;11.468;2023-07-16T09:42:42;27.60;93.90
32640;DHT22;19049;52.524;11.468;2023-07-16T09:45:16;27.70;92.80
32640;DHT22;19049;52.524;11.468;2023-07-16T09:55:03;27.60;97.00
32640;DHT22;19049;52.524;11.468;2023-07-16T09:57:35;28.30;99.90
32640;DHT22;19049;52.524;11.468;2023-07-16T10:00:05;27.70;99.00
32640;DHT22;19049;52.524;11.468;2023-07-16T10:02:35;28.50;92.70
32640;DHT22;19049;52.524;11.468;2023-07-16T10:05:24;28.50;94.60
32640;DHT22;19049;52.524;11.468;2023-07-16T10:07:56;28.80;95.30
32640;DHT22;19049;52.524;11.468;2023-07-16T10:10:26;28.70;85.30
32640;DHT22;19049;52.524;11.468;2023-07-16T10:13:01;28.90;82.40
32640;DHT22;19049;52.524;11.468;2023-07-16T10:15:28;29.00;75.70
32640;DHT22;19049;52.524;11.468;2023-07-16T10:17:54;28.70;93.00
32640;DHT22;19049;52.524;11.468;2023-07-16T10:20:35;29.20;90.20
32640;DHT22;19049;52.524;11.468;2023-07-16T10:23:15;29.30;74.20
32640;DHT22;19049;52.524;11.468;2023-07-16T10:25:58;28.50;87.10
32640;DHT22;19049;52.524;11.468;2023-07-16T10:30:50;29.40;91.30
32640;DHT22;19049;52.524;11.468;2023-07-16T10:33:16;28.80;76.00
32640;DHT22;19049;52.524;11.468;2023-07-16T10:35:46;29.70;89.40
32640;DHT22;19049;52.524;11.468;2023-07-16T10:38:12;29.00;90.60
32640;DHT22;19049;52.524;11.468;2023-07-16T10:40:41;29.60;87.30
32640;DHT22;19049;52.524;11.468;2023-07-16T10:43:07;29.80;88.30
32640;DHT22;19049;52.524;11.468;2023-07-16T10:45:33;29.90;91.20
32640;DHT22;19049;52.524;11.468;2023-07-16T10:47:59;28.90;76.20
32640;DHT22;19049;52.524;11.468;2023-07-16T10:50:24;29.40;67.00
32640;DHT22;19049;52.524;11.468;2023-07-16T10:52:55;29.80;86.00
32640;DHT22;19049;52.524;11.468;2023-07-16T10:55:21;29.70;76.90
32640;DHT22;19049;52.524;11.468;2023-07-16T10:57:48;29.80;77.90
32640;DHT22;19049;52.524;11.468;2023-07-16T11:00:15;30.30;82.00
32640;DHT22;19049;52.524;11.468;2023-07-16T11:02:42;30.10;86.80
32640;DHT22;19049;52.524;11.468;2023-07-16T11:05:13;30.60;82.40
32640;DHT22;19049;52.524;11.468;2023-07-16T11:07:49;30.20;75.60
32640;DHT22;19049;52.524;11.468;2023-07-16T11:10:16;30.30;71.60
32640;DHT22;19049;52.524;11.468;2023-07-16T11:12:42;30.30;76.00
32640;DHT22;19049;52.524;11.468;2023-07-16T11:15:08;30.20;73.80
32640;DHT22;19049;52.524;11.468;2023-07-16T11:17:37;30.00;70.50
32640;DHT22;19049;52.524;11.468;2023-07-16T11:20:03;29.80;65.20
32640;DHT22;19049;52.524;11.468;2023-07-16T11:22:31;29.60;70.20
32640;DHT22;19049;52.524;11.468;2023-07-16T11:24:57;29.40;81.10
32640;DHT22;19049;52.524;11.468;2023-07-16T11:27:26;28.80;77.90
32640;DHT22;19049;52.524;11.468;2023-07-16T11:29:54;28.90;64.70
32640;DHT22;19049;52.524;11.468;2023-07-16T11:32:36;28.90;67.10
32640;DHT22;19049;52.524;11.468;2023-07-16T11:35:06;28.90;71.10
32640;DHT22;19049;52.524;11.468;2023-07-16T11:37:34;29.00;81.00
32640;DHT22;19049;52.524;11.468;2023-07-16T11:40:03;29.30;75.20
32640;DHT22;19049;52.524;11.468;2023-07-16T11:42:34;29.40;71.90
32640;DHT22;19049;52.524;11.468;2023-07-16T11:45:01;28.60;84.40
32640;DHT22;19049;52.524;11.468;2023-07-16T11:47:27;29.40;73.00
32640;DHT22;19049;52.524;11.468;2023-07-16T11:49:53;29.20;77.90
32640;DHT22;19049;52.524;11.468;2023-07-16T11:52:27;29.50;87.90
32640;DHT22;19049;52.524;11.468;2023-07-16T11:54:54;29.90;85.40
32640;DHT22;19049;52.524;11.468;2023-07-16T11:57:20;30.50;78.00
32640;DHT22;19049;52.524;11.468;2023-07-16T11:59:46;30.80;84.80
32640;DHT22;19049;52.524;11.468;2023-07-16T12:02:12;29.90;80.30
32640;DHT22;19049;52.524;11.468;2023-07-16T12:04:38;29.90;80.70
32640;DHT22;19049;52.524;11.468;2023-07-16T12:09:29;31.00;72.70
32640;DHT22;19049;52.524;11.468;2023-07-16T12:11:56;30.10;63.30
32640;DHT22;19049;52.524;11.468;2023-07-16T12:14:22;31.80;75.10
32640;DHT22;19049;52.524;11.468;2023-07-16T12:16:47;30.50;77.50
32640;DHT22;19049;52.524;11.468;2023-07-16T12:19:13;31.80;82.30
32640;DHT22;19049;52.524;11.468;2023-07-16T12:21:39;31.30;63.30
32640;DHT22;19049;52.524;11.468;2023-07-16T12:33:49;31.70;75.70
32640;DHT22;19049;52.524;11.468;2023-07-16T12:36:15;31.40;59.60
32640;DHT22;19049;52.524;11.468;2023-07-16T12:38:41;32.10;73.60
32640;DHT22;19049;52.524;11.468;2023-07-16T12:43:33;31.50;54.30
32640;DHT22;19049;52.524;11.468;2023-07-16T12:46:04;31.60;56.00
32640;DHT22;19049;52.524;11.468;2023-07-16T12:48:32;31.70;56.50
32640;DHT22;19049;52.524;11.468;2023-07-16T12:50:58;31.70;66.50
32640;DHT22;19049;52.524;11.468;2023-07-16T12:53:25;33.90;57.50
32640;DHT22;19049;52.524;11.468;2023-07-16T12:55:51;31.20;67.30
32640;DHT22;19049;52.524;11.468;2023-07-16T13:03:09;32.30;64.30
32640;DHT22;19049;52.524;11.468;2023-07-16T13:05:39;31.40;51.60
32640;DHT22;19049;52.524;11.468;2023-07-16T13:22:42;31.80;61.60
32640;DHT22;19049;52.524;11.468;2023-07-16T13:27:34;32.20;49.30
32640;DHT22;19049;52.524;11.468;2023-07-16T13:39:44;31.60;62.80
32640;DHT22;19049;52.524;11.468;2023-07-16T13:47:03;32.50;63.60
32640;DHT22;19049;52.524;11.468;2023-07-16T13:54:21;32.80;64.90
32640;DHT22;19049;52.524;11.468;2023-07-16T13:56:48;32.70;64.30
32640;DHT22;19049;52.524;11.468;2023-07-16T13:59:14;32.20;65.00
32640;DHT22;19049;52.524;11.468;2023-07-16T14:01:40;32.30;65.70
32640;DHT22;19049;52.524;11.468;2023-07-16T14:04:06;32.70;64.70
32640;DHT22;19049;52.524;11.468;2023-07-16T14:06:32;32.40;62.60
32640;DHT22;19049;52.524;11.468;2023-07-16T14:08:58;32.20;53.50
32640;DHT22;19049;52.524;11.468;2023-07-16T14:11:24;32.00;58.80
32640;DHT22;19049;52.524;11.468;2023-07-16T14:13:50;31.50;60.60
32640;DHT22;19049;52.524;11.468;2023-07-16T14:16:20;32.70;64.60
32640;DHT22;19049;52.524;11.468;2023-07-16T14:18:51;32.50;56.20
32640;DHT22;19049;52.524;11.468;2023-07-16T14:21:20;33.10;73.60
32640;DHT22;19049;52.524;11.468;2023-07-16T14:23:46;32.70;56.40
32640;DHT22;19049;52.524;11.468;2023-07-16T14:26:12;33.00;55.80
32640;DHT22;19049;52.524;11.468;2023-07-16T14:28:37;33.10;52.20
32640;DHT22;19049;52.524;11.468;2023-07-16T14:31:03;33.00;54.40
32640;DHT22;19049;52.524;11.468;2023-07-16T14:33:29;33.30;63.80
32640;DHT22;19049;52.524;11.468;2023-07-16T14:35:55;32.80;47.20
32640;DHT22;19049;52.524;11.468;2023-07-16T14:38:21;32.80;52.10
32640;DHT22;19049;52.524;11.468;2023-07-16T14:40:47;32.90;54.60
32640;DHT22;19049;52.524;11.468;2023-07-16T14:43:13;32.90;54.20
32640;DHT22;19049;52.524;11.468;2023-07-16T14:45:39;33.00;53.80
32640;DHT22;19049;52.524;11.468;2023-07-16T14:48:05;33.10;54.20
32640;DHT22;19049;52.524;11.468;2023-07-16T14:50:31;33.10;54.00
32640;DHT22;19049;52.524;11.468;2023-07-16T14:57:49;31.20;64.40
32640;DHT22;19049;52.524;11.468;2023-07-16T15:07:35;33.10;50.50
32640;DHT22;19049;52.524;11.468;2023-07-16T15:10:02;32.30;47.30
32640;DHT22;19049;52.524;11.468;2023-07-16T15:14:54;32.10;57.80
32640;DHT22;19049;52.524;11.468;2023-07-16T15:17:20;32.70;55.50
32640;DHT22;19049;52.524;11.468;2023-07-16T15:24:43;31.50;54.00
32640;DHT22;19049;52.524;11.468;2023-07-16T15:27:09;31.40;53.80
32640;DHT22;19049;52.524;11.468;2023-07-16T15:29:35;31.90;48.50
32640;DHT22;19049;52.524;11.468;2023-07-16T15:34:26;32.20;54.30
32640;DHT22;19049;52.524;11.468;2023-07-16T15:41:44;31.80;66.10
32640;DHT22;19049;52.524;11.468;2023-07-16T15:51:29;31.50;55.40
32640;DHT22;19049;52.524;11.468;2023-07-16T15:56:22;31.00;50.30
32640;DHT22;19049;52.524;11.468;2023-07-16T16:15:55;30.50;53.30
32640;DHT22;19049;52.524;11.468;2023-07-16T16:18:22;30.90;51.20
32640;DHT22;19049;52.524;11.468;2023-07-16T16:20:48;31.00;58.40
32640;DHT22;19049;52.524;11.468;2023-07-16T16:23:14;30.90;49.00
32640;DHT22;19049;52.524;11.468;2023-07-16T16:25:41;30.20;57.20
32640;DHT22;19049;52.524;11.468;2023-07-16T16:28:07;30.40;45.80
32640;DHT22;19049;52.524;11.468;2023-07-16T16:30:35;30.30;50.70
32640;DHT22;19049;52.524;11.468;2023-07-16T16:33:01;30.10;48.20
32640;DHT22;19049;52.524;11.468;2023-07-16T16:35:38;29.20;60.20
32640;DHT22;19049;52.524;11.468;2023-07-16T16:40:34;29.90;53.20
32640;DHT22;19049;52.524;11.468;2023-07-16T16:45:26;30.60;66.30
32640;DHT22;19049;52.524;11.468;2023-07-16T16:47:52;30.40;63.90
32640;DHT22;19049;52.524;11.468;2023-07-16T16:52:44;30.40;63.80
32640;DHT22;19049;52.524;11.468;2023-07-16T16:55:10;30.60;62.30
32640;DHT22;19049;52.524;11.468;2023-07-16T17:04:55;30.70;62.30
32640;DHT22;19049;52.524;11.468;2023-07-16T17:07:21;31.10;61.20
32640;DHT22;19049;52.524;11.468;2023-07-16T17:09:47;31.90;62.60
32640;DHT22;19049;52.524;11.468;2023-07-16T17:14:40;31.70;59.80
32640;DHT22;19049;52.524;11.468;2023-07-16T17:19:36;31.60;56.90
32640;DHT22;19049;52.524;11.468;2023-07-16T17:22:03;31.90;59.90
32640;DHT22;19049;52.524;11.468;2023-07-16T17:24:28;31.90;60.80
32640;DHT22;19049;52.524;11.468;2023-07-16T17:26:54;31.20;61.80
32640;DHT22;19049;52.524;11.468;2023-07-16T17:31:46;30.90;61.30
32640;DHT22;19049;52.524;11.468;2023-07-16T17:34:11;31.20;65.90
32640;DHT22;19049;52.524;11.468;2023-07-16T17:36:38;30.10;65.60
32640;DHT22;19049;52.524;11.468;2023-07-16T18:01:02;30.70;53.70
32640;DHT22;19049;52.524;11.468;2023-07-16T18:05:55;30.00;59.60
32640;DHT22;19049;52.524;11.468;2023-07-16T18:08:22;30.50;50.50
32640;DHT22;19049;52.524;11.468;2023-07-16T18:15:41;29.90;56.60
32640;DHT22;19049;52.524;11.468;2023-07-16T18:30:19;27.30;65.70
32640;DHT22;19049;52.524;11.468;2023-07-16T18:37:37;27.70;72.30
32640;DHT22;19049;52.524;11.468;2023-07-16T18:40:03;26.80;56.70
32640;DHT22;19049;52.524;11.468;2023-07-16T18:44:57;25.80;73.20
32640;DHT22;19049;52.524;11.468;2023-07-16T18:47:25;26.30;58.70
32640;DHT22;19049;52.524;11.468;2023-07-16T18:49:51;26.10;59.30
32640;DHT22;19049;52.524;11.468;2023-07-16T18:52:17;25.90;60.10
32640;DHT22;19049;52.524;11.468;2023-07-16T18:54:43;25.60;60.60
32640;DHT22;19049;52.524;11.468;2023-07-16T18:57:09;24.80;77.10
32640;DHT22;19049;52.524;11.468;2023-07-16T19:04:26;23.90;79.30
32640;DHT22;19049;52.524;11.468;2023-07-16T19:06:52;24.50;64.70
32640;DHT22;19049;52.524;11.468;2023-07-16T19:11:46;24.00;66.00
32640;DHT22;19049;52.524;11.468;2023-07-16T19:16:38;23.90;78.40
32640;DHT22;19049;52.524;11.468;2023-07-16T19:26:23;22.70;68.60
32640;DHT22;19049;52.524;11.468;2023-07-16T19:31:15;22.30;84.60
32640;DHT22;19049;52.524;11.468;2023-07-16T19:41:05;21.30;72.80
32640;DHT22;19049;52.524;11.468;2023-07-16T19:46:03;21.00;74.20
32640;DHT22;19049;52.524;11.468;2023-07-16T19:48:30;20.80;74.90
32640;DHT22;19049;52.524;11.468;2023-07-16T20:05:37;20.30;93.30
32640;DHT22;19049;52.524;11.468;2023-07-16T20:08:06;19.50;79.90
32640;DHT22;19049;52.524;11.468;2023-07-16T20:20:16;19.40;93.70
32640;DHT22;19049;52.524;11.468;2023-07-16T20:22:42;19.30;90.10
32640;DHT22;19049;52.524;11.468;2023-07-16T20:25:09;18.40;95.70
32640;DHT22;19049;52.524;11.468;2023-07-16T20:34:56;18.30;86.00
32640;DHT22;19049;52.524;11.468;2023-07-16T21:02:14;17.70;98.90
32640;DHT22;19049;52.524;11.468;2023-07-16T21:04:40;17.40;90.70
32640;DHT22;19049;52.524;11.468;2023-07-16T21:07:06;17.90;99.70
32640;DHT22;19049;52.524;11.468;2023-07-16T21:11:58;18.50;99.90
32640;DHT22;19049;52.524;11.468;2023-07-16T21:14:24;17.10;99.90
32640;DHT22;19049;52.524;11.468;2023-07-16T21:21:43;17.30;99.90
32640;DHT22;19049;52.524;11.468;2023-07-16T21:24:09;16.70;99.90
32640;DHT22;19049;52.524;11.468;2023-07-16T21:26:34;16.90;99.20
32640;DHT22;19049;52.524;11.468;2023-07-16T21:31:26;16.90;99.90
32640;DHT22;19049;52.524;11.468;2023-07-16T22:07:56;16.80;99.90
32640;DHT22;19049;52.524;11.468;2023-07-16T22:20:06;16.30;94.50
32640;DHT22;19049;52.524;11.468;2023-07-16T22:37:12;16.10;95.20
32640;DHT22;19049;52.524;11.468;2023-07-16T22:39:38;16.10;95.50
32640;DHT22;19049;52.524;11.468;2023-07-16T22:42:04;16.20;95.60
32640;DHT22;19049;52.524;11.468;2023-07-16T22:44:30;16.20;95.60
32640;DHT22;19049;52.524;11.468;2023-07-16T22:46:55;16.20;95.70
32640;DHT22;19049;52.524;11.468;2023-07-16T22:49:21;16.20;95.80
32640;DHT22;19049;52.524;11.468;2023-07-16T22:51:47;16.20;95.80
32640;DHT22;19049;52.524;11.468;2023-07-16T22:54:12;16.10;95.90
32640;DHT22;19049;52.524;11.468;2023-07-16T22:56:38;16.10;95.90
32640;DHT22;19049;52.524;11.468;2023-07-16T22:59:04;16.10;96.00
32640;DHT22;19049;52.524;11.468;2023-07-16T23:01:30;16.10;96.00
32640;DHT22;19049;52.524;11.468;2023-07-16T23:03:56;16.10;96.00
32640;DHT22;19049;52.524;11.468;2023-07-16T23:06:21;16.10;96.00
32640;DHT22;19049;52.524;11.468;2023-07-16T23:08:47;16.00;96.00
32640;DHT22;19049;52.524;11.468;2023-07-16T23:11:12;16.00;96.00
32640;DHT22;19049;52.524;11.468;2023-07-16T23:13:38;16.00;96.00
32640;DHT22;19049;52.524;11.468;2023-07-16T23:16:04;16.00;96.00
32640;DHT22;19049;52.524;11.468;2023-07-16T23:18:30;15.90;96.00